createdAt,value
2022-12-23T02:39:40.432Z,11.07
2022-12-23T02:42:21.070Z,11.85
2022-12-23T02:45:01.213Z,10.73
2022-12-23T02:47:45.351Z,10.75
2022-12-23T02:50:17.918Z,10.98
2022-12-23T02:52:47.522Z,11.13
2022-12-23T02:55:22.834Z,10.85
2022-12-23T02:57:52.020Z,10.30
2022-12-23T03:00:20.176Z,10.15
2022-12-23T03:02:48.187Z,10.18
2022-12-23T03:05:25.528Z,9.57
2022-12-23T03:07:59.742Z,10.20
2022-12-23T03:10:46.301Z,9.55
2022-12-23T03:13:35.182Z,9.93
2022-12-23T03:16:18.295Z,9.88
2022-12-23T03:19:24.316Z,9.85
2022-12-23T03:22:22.010Z,9.80
2022-12-23T03:25:02.948Z,9.88
2022-12-23T03:27:36.483Z,9.80
2022-12-23T03:30:07.762Z,9.02
2022-12-23T03:33:05.934Z,10.45
2022-12-23T03:36:13.337Z,9.48
2022-12-23T03:38:42.099Z,8.85
2022-12-23T03:41:21.738Z,8.45
2022-12-23T03:44:02.324Z,9.38
2022-12-23T03:46:39.228Z,8.60
2022-12-23T03:49:15.436Z,8.57
2022-12-23T03:52:06.384Z,9.15
2022-12-23T03:54:44.427Z,11.45
2022-12-23T03:57:13.016Z,11.50
2022-12-23T03:59:46.209Z,10.63
2022-12-23T04:02:26.136Z,10.65
2022-12-23T04:05:20.132Z,10.60
2022-12-23T04:08:09.653Z,9.25
2022-12-23T04:10:37.977Z,9.68
2022-12-23T04:13:06.004Z,10.75
2022-12-23T04:15:34.239Z,10.00
2022-12-23T04:18:02.394Z,10.80
2022-12-23T04:20:30.882Z,10.68
2022-12-23T04:22:58.506Z,10.07
2022-12-23T04:25:26.208Z,10.75
2022-12-23T04:27:54.234Z,10.32
2022-12-23T04:30:22.114Z,10.82
2022-12-23T04:32:49.940Z,10.20
2022-12-23T04:35:17.674Z,10.13
2022-12-23T04:37:45.423Z,9.85
2022-12-23T04:40:13.396Z,9.55
2022-12-23T04:42:42.201Z,10.63
2022-12-23T04:45:10.221Z,10.80
2022-12-23T04:47:37.978Z,10.80
2022-12-23T04:50:06.312Z,9.90
2022-12-23T04:52:34.215Z,10.73
2022-12-23T04:55:01.875Z,10.35
2022-12-23T04:57:30.288Z,10.07
2022-12-23T04:59:57.919Z,10.20
2022-12-23T05:02:25.687Z,9.93
2022-12-23T05:04:53.628Z,10.45
2022-12-23T05:07:21.266Z,11.05
2022-12-23T05:09:48.927Z,10.40
2022-12-23T05:12:17.275Z,10.02
2022-12-23T05:14:44.997Z,9.90
2022-12-23T05:17:12.755Z,9.63
2022-12-23T05:19:40.408Z,10.43
2022-12-23T05:22:08.155Z,9.23
2022-12-23T05:24:35.954Z,9.98
2022-12-23T05:27:03.693Z,9.50
2022-12-23T05:29:31.575Z,9.75
2022-12-23T05:31:59.300Z,10.02
2022-12-23T05:34:27.118Z,9.82
2022-12-23T05:36:54.753Z,9.15
2022-12-23T05:39:22.489Z,9.40
2022-12-23T05:41:50.195Z,9.52
2022-12-23T05:44:17.927Z,9.95
2022-12-23T05:46:45.602Z,10.30
2022-12-23T05:49:13.995Z,9.85
2022-12-23T05:51:41.633Z,9.80
2022-12-23T05:54:09.442Z,9.40
2022-12-23T05:56:37.191Z,10.13
2022-12-23T05:59:05.067Z,9.55
2022-12-23T06:01:32.742Z,9.50
2022-12-23T06:04:00.802Z,9.50
2022-12-23T06:06:29.014Z,9.63
2022-12-23T06:08:59.792Z,10.00
2022-12-23T06:11:28.574Z,9.93
2022-12-23T06:13:56.325Z,9.90
2022-12-23T06:16:24.003Z,10.68
2022-12-23T06:18:56.149Z,9.85
2022-12-23T06:21:25.679Z,10.80
2022-12-23T06:23:53.384Z,10.23
2022-12-23T06:26:21.047Z,10.43
2022-12-23T06:28:48.731Z,10.30
2022-12-23T06:31:16.903Z,10.05
2022-12-23T06:33:44.691Z,10.77
2022-12-23T06:36:12.553Z,11.27
2022-12-23T06:38:40.181Z,10.80
2022-12-23T06:41:08.145Z,10.10
2022-12-23T06:43:35.946Z,10.35
2022-12-23T06:46:03.969Z,10.40
2022-12-23T06:48:31.657Z,10.20
2022-12-23T06:50:59.495Z,10.60
2022-12-23T06:53:27.118Z,10.93
2022-12-23T06:56:02.288Z,11.43
2022-12-23T06:58:30.211Z,11.40
2022-12-23T07:00:58.004Z,11.27
2022-12-23T07:03:25.917Z,11.55
2022-12-23T07:05:54.510Z,11.48
2022-12-23T07:08:22.485Z,11.18
2022-12-23T07:10:50.108Z,10.65
2022-12-23T07:13:18.989Z,12.05
2022-12-23T07:15:46.647Z,12.07
2022-12-23T07:18:15.394Z,12.38
2022-12-23T07:20:43.130Z,12.82
2022-12-23T07:23:10.757Z,11.90
2022-12-23T07:25:38.514Z,12.65
2022-12-23T07:28:06.175Z,12.60
2022-12-23T07:30:34.151Z,12.05
2022-12-23T07:33:01.950Z,13.20
2022-12-23T07:35:29.820Z,13.07
2022-12-23T07:37:57.470Z,11.68
2022-12-23T07:40:25.469Z,12.50
2022-12-23T07:42:58.358Z,12.05
2022-12-23T07:45:27.569Z,13.45
2022-12-23T07:47:56.169Z,12.43
2022-12-23T07:50:24.299Z,13.27
2022-12-23T07:52:53.062Z,13.45
2022-12-23T07:55:20.940Z,12.48
2022-12-23T07:57:52.180Z,13.90
2022-12-23T08:00:21.075Z,13.77
2022-12-23T08:02:49.172Z,13.23
2022-12-23T08:05:17.162Z,12.93
2022-12-23T08:07:45.469Z,13.05
2022-12-23T08:10:13.238Z,13.75
2022-12-23T08:12:40.940Z,14.07
2022-12-23T08:15:09.453Z,14.82
2022-12-23T08:17:37.333Z,14.52
2022-12-23T08:20:05.418Z,14.23
2022-12-23T08:22:33.127Z,13.90
2022-12-23T08:25:00.789Z,14.20
2022-12-23T08:27:28.560Z,13.65
2022-12-23T08:29:56.131Z,13.50
2022-12-23T08:32:27.613Z,13.68
2022-12-23T08:34:59.264Z,13.70
2022-12-23T08:37:27.068Z,13.45
2022-12-23T08:39:54.697Z,13.27
2022-12-23T08:42:22.596Z,13.40
2022-12-23T08:44:50.289Z,12.98
2022-12-23T08:47:17.931Z,13.18
2022-12-23T08:49:45.543Z,13.55
2022-12-23T08:52:13.410Z,12.43
2022-12-23T08:54:41.017Z,13.30
2022-12-23T08:57:08.776Z,13.30
2022-12-23T08:59:36.441Z,13.48
2022-12-23T09:02:04.521Z,12.40
2022-12-23T09:04:32.337Z,12.23
2022-12-23T09:07:00.033Z,12.57
2022-12-23T09:09:27.755Z,12.45
2022-12-23T09:11:55.500Z,11.90
2022-12-23T09:14:23.119Z,12.15
2022-12-23T09:16:52.656Z,11.80
2022-12-23T09:19:20.677Z,11.45
2022-12-23T09:21:48.372Z,11.80
2022-12-23T09:24:16.143Z,11.20
2022-12-23T09:26:43.858Z,11.73
2022-12-23T09:29:11.521Z,10.93
2022-12-23T09:31:39.451Z,12.07
2022-12-23T09:34:07.284Z,11.10
2022-12-23T09:36:35.096Z,11.07
2022-12-23T09:39:02.826Z,10.52
2022-12-23T09:41:55.450Z,11.05
2022-12-23T09:44:44.838Z,11.23
2022-12-23T09:47:18.664Z,10.65
2022-12-23T09:49:57.119Z,10.32
2022-12-23T09:52:43.693Z,11.23
2022-12-23T09:55:12.382Z,10.90
2022-12-23T09:57:53.255Z,10.00
2022-12-23T10:00:22.116Z,10.80
2022-12-23T10:03:00.329Z,10.18
2022-12-23T10:06:02.121Z,10.45
2022-12-23T10:08:43.398Z,10.50
2022-12-23T10:11:27.291Z,9.88
2022-12-23T10:13:59.007Z,10.38
2022-12-23T10:16:30.707Z,9.27
2022-12-23T10:19:32.744Z,10.43
2022-12-23T10:22:02.983Z,10.17
2022-12-23T10:24:37.447Z,9.35
2022-12-23T10:27:18.801Z,9.98
2022-12-23T10:29:46.627Z,9.57
2022-12-23T10:32:17.471Z,10.20
2022-12-23T10:35:00.834Z,9.48
2022-12-23T10:37:49.253Z,8.95
2022-12-23T10:40:23.937Z,9.45
2022-12-23T10:43:22.936Z,9.80
2022-12-23T10:46:02.873Z,9.40
2022-12-23T10:48:55.378Z,9.25
2022-12-23T10:51:27.352Z,8.77
2022-12-23T10:54:23.265Z,8.95
2022-12-23T10:56:51.021Z,9.20
2022-12-23T10:59:25.105Z,8.98
2022-12-23T11:01:58.722Z,8.70
2022-12-23T11:04:35.370Z,8.90
2022-12-23T11:07:41.983Z,8.93
2022-12-23T11:09:59.495Z,8.20
2022-12-23T11:12:42.602Z,8.30
2022-12-23T11:15:40.618Z,8.55
2022-12-23T11:18:12.354Z,8.90
2022-12-23T11:20:42.393Z,8.57
2022-12-23T11:23:30.611Z,8.25
2022-12-23T11:26:11.619Z,8.73
2022-12-23T11:28:50.870Z,8.02
2022-12-23T11:31:28.312Z,8.32
2022-12-23T11:33:57.328Z,7.78
2022-12-23T11:36:27.957Z,8.10
2022-12-23T11:39:04.839Z,8.35
2022-12-23T11:41:38.778Z,8.43
2022-12-23T11:44:33.722Z,8.50
2022-12-23T11:47:39.134Z,7.93
2022-12-23T11:50:40.560Z,8.63
2022-12-23T11:53:23.812Z,8.27
2022-12-23T11:56:09.906Z,7.80
2022-12-23T11:58:46.914Z,7.65
2022-12-23T12:01:20.491Z,7.68
2022-12-23T12:03:51.669Z,8.45
2022-12-23T12:06:19.891Z,8.00
2022-12-23T12:08:51.772Z,8.02
2022-12-23T12:11:33.523Z,7.50
2022-12-23T12:14:03.897Z,6.93
2022-12-23T12:16:31.989Z,7.78
2022-12-23T12:19:16.834Z,7.20
2022-12-23T12:21:45.045Z,6.95
2022-12-23T12:24:21.960Z,7.43
2022-12-23T12:26:52.771Z,7.78
2022-12-23T12:29:40.634Z,7.60
2022-12-23T12:32:40.976Z,7.20
2022-12-23T12:35:15.633Z,7.50
2022-12-23T12:37:58.000Z,7.88
2022-12-23T12:43:25.781Z,7.47
2022-12-23T12:46:02.716Z,7.13
2022-12-23T12:48:49.657Z,7.00
2022-12-23T12:51:32.208Z,7.63
2022-12-23T12:54:10.668Z,6.93
2022-12-23T12:56:48.460Z,7.45
2022-12-23T12:59:18.775Z,7.03
2022-12-23T13:02:08.599Z,7.45
2022-12-23T13:05:04.262Z,7.40
2022-12-23T13:07:41.536Z,7.32
2022-12-23T13:10:27.801Z,7.15
2022-12-23T13:13:04.584Z,6.55
2022-12-23T13:15:37.358Z,7.53
2022-12-23T13:18:16.579Z,6.90
2022-12-23T13:21:03.438Z,7.13
2022-12-23T13:23:44.425Z,7.43
2022-12-23T13:26:51.218Z,6.82
2022-12-23T13:29:22.101Z,6.85
2022-12-23T13:32:04.339Z,6.82
2022-12-23T13:34:59.988Z,6.90
2022-12-23T13:37:43.376Z,6.85
2022-12-23T13:40:29.565Z,6.55
2022-12-23T13:43:00.599Z,6.97
2022-12-23T13:45:40.445Z,6.20
2022-12-23T13:48:14.718Z,6.72
2022-12-23T13:50:51.251Z,6.88
2022-12-23T13:53:30.713Z,7.25
2022-12-23T13:56:36.921Z,6.50
2022-12-23T13:59:09.677Z,6.28
2022-12-23T14:01:40.380Z,6.20
2022-12-23T14:04:32.260Z,6.57
2022-12-23T14:07:19.722Z,6.60
2022-12-23T14:09:56.178Z,5.95
2022-12-23T14:12:31.624Z,6.05
2022-12-23T14:15:06.226Z,6.43
2022-12-23T14:18:02.440Z,6.35
2022-12-23T14:20:31.975Z,5.75
2022-12-23T14:23:21.954Z,6.80
2022-12-23T14:26:04.111Z,6.35
2022-12-23T14:28:45.002Z,6.47
2022-12-23T14:31:32.601Z,5.95
2022-12-23T14:34:33.053Z,6.50
2022-12-23T14:37:24.276Z,6.65
2022-12-23T14:39:52.877Z,6.45
2022-12-23T14:42:41.173Z,7.15
2022-12-23T14:45:29.494Z,6.47
2022-12-23T14:47:57.168Z,6.93
2022-12-23T14:50:37.283Z,6.80
2022-12-23T14:53:26.159Z,6.30
2022-12-23T14:56:11.033Z,6.65
2022-12-23T14:59:03.498Z,6.57
2022-12-23T15:01:47.142Z,5.88
2022-12-23T15:04:24.482Z,6.35
2022-12-23T15:06:59.417Z,6.45
2022-12-23T15:09:30.983Z,6.22
2022-12-23T15:12:00.496Z,6.40
2022-12-23T15:14:34.904Z,7.20
2022-12-23T15:17:15.987Z,6.78
2022-12-23T15:19:48.259Z,6.78
2022-12-23T15:22:22.692Z,6.93
2022-12-23T15:24:51.836Z,6.93
2022-12-23T15:27:29.433Z,7.88
2022-12-23T15:29:57.934Z,7.05
2022-12-23T15:32:26.546Z,6.75
2022-12-23T15:35:05.324Z,7.05
2022-12-23T15:37:33.870Z,7.50
2022-12-23T15:40:13.162Z,7.68
2022-12-23T15:42:47.670Z,7.72
2022-12-23T15:45:29.734Z,8.15
2022-12-23T15:47:57.588Z,7.68
2022-12-23T15:50:25.456Z,7.72
2022-12-23T15:52:54.787Z,8.38
2022-12-23T15:55:31.980Z,7.80
2022-12-23T15:58:00.648Z,8.75
2022-12-23T16:00:40.138Z,8.00
2022-12-23T16:03:27.352Z,8.52
2022-12-23T16:05:55.169Z,9.80
2022-12-23T16:08:29.838Z,9.30
2022-12-23T16:11:20.208Z,8.98
2022-12-23T16:14:00.375Z,9.60
2022-12-23T16:16:39.418Z,8.93
2022-12-23T16:19:45.015Z,9.50
2022-12-23T16:22:34.167Z,10.18
2022-12-23T16:25:15.445Z,9.45
2022-12-23T16:27:46.864Z,9.73
2022-12-23T16:30:20.282Z,10.13
2022-12-23T16:32:51.239Z,9.65
2022-12-23T16:35:41.929Z,10.43
2022-12-23T16:38:22.354Z,10.20
2022-12-23T16:40:54.988Z,10.35
2022-12-23T16:43:24.463Z,10.60
2022-12-23T16:45:54.948Z,10.45
2022-12-23T16:48:31.613Z,10.35
2022-12-23T16:51:00.701Z,10.90
2022-12-23T16:53:28.425Z,9.60
2022-12-23T16:56:00.595Z,10.55
2022-12-23T16:58:29.752Z,10.85
2022-12-23T17:00:58.223Z,10.95
2022-12-23T17:03:26.167Z,10.55
2022-12-23T17:05:53.818Z,11.02
2022-12-23T17:08:21.555Z,10.80
2022-12-23T17:10:49.364Z,11.15
2022-12-23T17:13:18.572Z,10.20
2022-12-23T17:15:46.267Z,10.60
2022-12-23T17:18:16.767Z,10.90
2022-12-23T17:20:48.653Z,10.57
2022-12-23T17:23:29.027Z,10.50
2022-12-23T17:25:57.302Z,10.75
2022-12-23T17:28:31.496Z,10.30
2022-12-23T17:30:59.420Z,10.50
2022-12-23T17:33:30.537Z,10.68
2022-12-23T17:35:59.119Z,10.57
2022-12-23T17:38:29.674Z,11.30
2022-12-23T17:41:00.766Z,10.52
2022-12-23T17:43:28.619Z,11.15
2022-12-23T17:45:56.539Z,11.52
2022-12-23T17:48:28.143Z,10.90
2022-12-23T17:50:59.477Z,11.25
2022-12-23T17:53:27.188Z,11.50
2022-12-23T17:55:54.943Z,10.90
2022-12-23T17:58:22.769Z,11.18
2022-12-23T18:00:50.568Z,11.07
2022-12-23T18:03:23.844Z,11.10
2022-12-23T18:05:57.400Z,11.10
2022-12-23T18:08:29.199Z,11.48
2022-12-23T18:10:57.569Z,11.65
2022-12-23T18:13:25.382Z,11.27
2022-12-23T18:15:53.254Z,11.35
2022-12-23T18:18:30.211Z,11.20
2022-12-23T18:23:32.676Z,11.88
2022-12-23T18:26:01.031Z,12.05
2022-12-23T18:28:29.229Z,11.95
2022-12-23T18:30:58.772Z,11.50
2022-12-23T18:33:28.987Z,11.57
2022-12-23T18:35:57.308Z,11.98
2022-12-23T18:38:25.776Z,11.45
2022-12-23T18:40:56.763Z,12.13
2022-12-23T18:43:25.784Z,11.23
2022-12-23T18:45:54.282Z,10.82
2022-12-23T18:48:23.512Z,10.68
2022-12-23T18:50:51.425Z,11.77
2022-12-23T18:53:25.403Z,10.80
2022-12-23T18:55:54.390Z,11.23
2022-12-23T18:58:22.679Z,11.55
2022-12-23T19:00:51.467Z,12.27
2022-12-23T19:03:30.803Z,11.70
2022-12-23T19:06:06.728Z,11.55
2022-12-23T19:08:36.006Z,11.05
2022-12-23T19:11:15.312Z,11.00
2022-12-23T19:13:43.204Z,10.20
2022-12-23T19:16:15.794Z,10.25
2022-12-23T19:18:44.237Z,10.30
2022-12-23T19:21:12.615Z,11.57
2022-12-23T19:23:41.689Z,10.55
2022-12-23T19:26:11.017Z,10.77
2022-12-23T19:28:39.428Z,11.10
2022-12-23T19:31:14.063Z,11.20
2022-12-23T19:33:43.956Z,10.70
